createdAt,value
2022-10-22T00:01:17.893Z,14.45
2022-10-22T00:03:45.815Z,23.13
2022-10-22T00:06:14.171Z,13.90
2022-10-22T00:08:42.196Z,7.18
2022-10-22T00:11:11.559Z,6.30
2022-10-22T00:13:41.146Z,7.95
2022-10-22T00:16:09.867Z,7.45
2022-10-22T00:18:38.495Z,7.63
2022-10-22T00:21:07.712Z,6.97
2022-10-22T00:23:35.993Z,6.43
2022-10-22T00:26:04.060Z,6.28
2022-10-22T00:28:32.052Z,7.35
2022-10-22T00:31:02.696Z,7.18
2022-10-22T00:33:31.092Z,7.05
2022-10-22T00:35:59.423Z,6.57
2022-10-22T00:38:27.752Z,8.00
2022-10-22T00:40:56.087Z,7.93
2022-10-22T00:43:24.016Z,7.13
2022-10-22T00:45:51.963Z,6.95
2022-10-22T00:48:24.102Z,6.50
2022-10-22T00:50:55.562Z,6.00
2022-10-22T00:53:27.516Z,6.15
2022-10-22T00:55:55.733Z,6.28
2022-10-22T00:58:27.071Z,5.97
2022-10-22T01:00:55.924Z,7.00
2022-10-22T01:03:25.287Z,5.47
2022-10-22T01:05:57.914Z,5.75
2022-10-22T01:08:33.983Z,6.13
2022-10-22T01:11:11.167Z,6.25
2022-10-22T01:13:50.443Z,6.80
2022-10-22T01:16:23.314Z,6.20
2022-10-22T01:19:00.622Z,6.55
2022-10-22T01:21:35.490Z,7.40
2022-10-22T01:24:20.601Z,6.35
2022-10-22T01:27:01.578Z,6.10
2022-10-22T01:29:34.624Z,6.97
2022-10-22T01:32:08.218Z,6.13
2022-10-22T01:34:38.992Z,5.70
2022-10-22T01:37:08.058Z,6.70
2022-10-22T01:39:39.590Z,6.28
2022-10-22T01:42:07.465Z,7.10
2022-10-22T01:44:37.702Z,6.72
2022-10-22T01:47:16.192Z,6.95
2022-10-22T01:50:19.173Z,6.93
2022-10-22T01:53:04.682Z,6.38
2022-10-22T01:58:20.599Z,5.88
2022-10-22T02:00:58.124Z,7.10
2022-10-22T02:03:30.210Z,7.05
2022-10-22T02:06:05.854Z,7.43
2022-10-22T02:08:36.738Z,6.93
2022-10-22T02:11:05.941Z,6.47
2022-10-22T02:13:38.498Z,6.90
2022-10-22T02:16:10.633Z,5.95
2022-10-22T02:18:42.876Z,6.57
2022-10-22T02:21:10.957Z,6.75
2022-10-22T02:23:39.765Z,6.38
2022-10-22T02:26:15.607Z,6.13
2022-10-22T02:28:50.469Z,6.00
2022-10-22T02:31:24.513Z,5.97
2022-10-22T02:33:57.475Z,6.30
2022-10-22T02:36:26.880Z,6.28
2022-10-22T02:38:55.946Z,7.13
2022-10-22T02:41:24.501Z,6.93
2022-10-22T02:43:55.712Z,5.95
2022-10-22T02:46:26.703Z,6.40
2022-10-22T02:48:54.572Z,6.70
2022-10-22T02:51:22.427Z,7.63
2022-10-22T02:53:50.299Z,6.70
2022-10-22T02:56:18.204Z,6.15
2022-10-22T02:58:46.044Z,5.88
2022-10-22T03:01:16.143Z,6.00
2022-10-22T03:03:45.631Z,6.63
2022-10-22T03:06:13.635Z,6.28
2022-10-22T03:08:41.770Z,6.32
2022-10-22T03:11:09.692Z,6.22
2022-10-22T03:13:37.760Z,6.80
2022-10-22T03:16:06.130Z,6.22
2022-10-22T03:18:34.028Z,6.10
2022-10-22T03:21:10.852Z,5.85
2022-10-22T03:23:39.826Z,5.88
2022-10-22T03:26:09.154Z,6.18
2022-10-22T03:28:38.010Z,6.57
2022-10-22T03:31:06.057Z,5.57
2022-10-22T03:33:33.937Z,5.47
2022-10-22T03:36:01.884Z,5.40
2022-10-22T03:38:31.759Z,5.88
2022-10-22T03:40:59.904Z,5.53
2022-10-22T03:43:28.341Z,6.35
2022-10-22T03:45:56.222Z,5.65
2022-10-22T03:48:24.232Z,6.35
2022-10-22T03:50:52.105Z,5.70
2022-10-22T03:53:19.944Z,5.45
2022-10-22T03:55:49.232Z,6.13
2022-10-22T03:58:17.256Z,5.68
2022-10-22T04:00:45.181Z,6.43
2022-10-22T04:03:13.092Z,6.63
2022-10-22T04:05:41.055Z,5.80
2022-10-22T04:08:09.092Z,6.00
2022-10-22T04:10:37.067Z,6.75
2022-10-22T04:13:06.305Z,6.30
2022-10-22T04:15:34.279Z,5.55
2022-10-22T04:18:02.126Z,5.25
2022-10-22T04:20:30.014Z,5.25
2022-10-22T04:22:57.928Z,5.57
2022-10-22T04:25:25.746Z,5.05
2022-10-22T04:27:53.672Z,5.55
2022-10-22T04:30:22.835Z,5.22
2022-10-22T04:32:50.686Z,5.68
2022-10-22T04:35:18.566Z,5.53
2022-10-22T04:37:46.627Z,5.38
2022-10-22T04:40:14.513Z,5.53
2022-10-22T04:42:42.405Z,5.32
2022-10-22T04:45:11.384Z,5.68
2022-10-22T04:47:40.906Z,6.10
2022-10-22T04:50:09.595Z,5.45
2022-10-22T04:52:37.443Z,5.65
2022-10-22T04:55:06.122Z,5.28
2022-10-22T04:57:34.166Z,5.35
2022-10-22T05:00:02.156Z,5.88
2022-10-22T05:02:30.042Z,5.32
2022-10-22T05:04:59.293Z,5.22
2022-10-22T05:07:27.191Z,4.97
2022-10-22T05:09:55.397Z,4.90
2022-10-22T05:12:23.270Z,5.40
2022-10-22T05:14:51.140Z,4.57
2022-10-22T05:17:19.009Z,5.03
2022-10-22T05:19:46.894Z,5.18
2022-10-22T05:22:16.153Z,4.93
2022-10-22T05:24:43.978Z,6.10
2022-10-22T05:27:12.329Z,5.50
2022-10-22T05:29:40.236Z,7.32
2022-10-22T05:32:08.146Z,5.85
2022-10-22T05:34:36.281Z,6.47
2022-10-22T05:37:04.142Z,6.10
2022-10-22T05:39:36.575Z,5.65
2022-10-22T05:42:04.916Z,6.03
2022-10-22T05:44:32.865Z,6.13
2022-10-22T05:47:00.800Z,5.95
2022-10-22T05:49:28.628Z,5.80
2022-10-22T05:51:56.511Z,6.63
2022-10-22T05:54:24.374Z,5.88
2022-10-22T05:56:54.300Z,6.53
2022-10-22T05:59:22.184Z,7.60
2022-10-22T06:01:50.120Z,6.85
2022-10-22T06:04:18.027Z,6.60
2022-10-22T06:06:47.909Z,6.68
2022-10-22T06:09:19.317Z,7.18
2022-10-22T06:11:48.753Z,7.47
2022-10-22T06:14:18.805Z,5.88
2022-10-22T06:16:46.888Z,6.60
2022-10-22T06:19:16.985Z,6.68
2022-10-22T06:21:45.379Z,6.75
2022-10-22T06:24:14.446Z,7.10
2022-10-22T06:26:42.598Z,6.63
2022-10-22T06:29:11.298Z,6.40
2022-10-22T06:31:40.552Z,5.90
2022-10-22T06:34:12.637Z,6.50
2022-10-22T06:39:15.269Z,7.35
2022-10-22T06:41:43.196Z,6.38
2022-10-22T06:44:15.530Z,6.88
2022-10-22T06:46:45.114Z,7.32
2022-10-22T06:49:14.944Z,7.55
2022-10-22T06:51:43.232Z,6.82
2022-10-22T06:54:11.547Z,6.60
2022-10-22T06:56:39.491Z,6.30
2022-10-22T06:59:07.456Z,6.57
2022-10-22T07:01:37.043Z,6.72
2022-10-22T07:04:06.883Z,6.32
2022-10-22T07:06:34.891Z,7.47
2022-10-22T07:09:03.066Z,6.90
2022-10-22T07:11:38.658Z,7.80
2022-10-22T07:14:06.818Z,7.03
2022-10-22T07:16:34.858Z,7.05
2022-10-22T07:19:03.731Z,6.28
2022-10-22T07:21:33.560Z,6.38
2022-10-22T07:24:02.081Z,6.93
2022-10-22T07:26:32.518Z,6.63
2022-10-22T07:29:00.966Z,6.70
2022-10-22T07:31:29.289Z,6.10
2022-10-22T07:33:58.058Z,6.35
2022-10-22T07:36:26.233Z,6.15
2022-10-22T07:39:00.567Z,6.38
2022-10-22T07:41:29.968Z,5.75
2022-10-22T07:43:58.385Z,6.13
2022-10-22T07:46:27.083Z,5.13
2022-10-22T07:48:55.009Z,6.95
2022-10-22T07:51:23.159Z,6.22
2022-10-22T07:53:51.116Z,5.63
2022-10-22T07:56:20.372Z,5.50
2022-10-22T07:58:48.371Z,5.53
2022-10-22T08:01:16.360Z,4.75
2022-10-22T08:03:44.304Z,4.53
2022-10-22T08:06:14.406Z,3.97
2022-10-22T08:08:43.431Z,3.55
2022-10-22T08:11:12.707Z,3.42
2022-10-22T08:13:45.370Z,3.00
2022-10-22T08:16:14.356Z,4.30
2022-10-22T08:18:42.648Z,3.13
2022-10-22T08:21:10.735Z,2.75
2022-10-22T08:23:38.814Z,2.50
2022-10-22T08:26:07.257Z,2.90
2022-10-22T08:28:37.175Z,3.20
2022-10-22T08:31:08.623Z,1.98
2022-10-22T08:33:38.672Z,2.45
2022-10-22T08:36:07.707Z,2.20
2022-10-22T08:38:35.693Z,2.38
2022-10-22T08:41:10.784Z,2.33
2022-10-22T08:43:49.157Z,2.70
2022-10-22T08:46:34.854Z,2.25
2022-10-22T08:49:06.018Z,2.42
2022-10-22T08:51:36.897Z,2.92
2022-10-22T08:54:20.258Z,3.58
2022-10-22T08:56:56.176Z,2.70
2022-10-22T08:59:30.712Z,2.92
2022-10-22T09:02:00.582Z,2.95
2022-10-22T09:04:34.671Z,2.60
2022-10-22T09:07:02.595Z,2.30
2022-10-22T09:09:35.271Z,2.40
2022-10-22T09:12:05.310Z,1.90
2022-10-22T09:14:33.211Z,1.98
2022-10-22T09:17:17.180Z,2.53
2022-10-22T09:19:59.321Z,2.95
2022-10-22T09:25:20.880Z,1.60
2022-10-22T09:27:49.609Z,2.50
2022-10-22T09:30:19.632Z,2.13
2022-10-22T09:32:52.040Z,2.78
2022-10-22T09:35:25.256Z,1.55
2022-10-22T09:40:24.781Z,1.60
2022-10-22T09:42:52.676Z,1.38
2022-10-22T09:45:24.148Z,1.65
2022-10-22T09:48:10.666Z,1.48
2022-10-22T09:50:43.921Z,1.60
2022-10-22T09:53:19.590Z,1.55
2022-10-22T09:55:52.091Z,2.00
2022-10-22T09:58:21.280Z,1.70
2022-10-22T10:00:54.915Z,2.00
2022-10-22T10:03:26.901Z,1.40
2022-10-22T10:06:01.543Z,1.70
2022-10-22T10:08:33.119Z,2.17
2022-10-22T10:11:06.791Z,1.92
2022-10-22T10:13:47.898Z,1.70
2022-10-22T10:16:30.390Z,1.83
2022-10-22T10:19:14.727Z,2.13
2022-10-22T10:21:55.427Z,1.67
2022-10-22T10:24:32.887Z,2.00
2022-10-22T10:27:06.226Z,2.13
2022-10-22T10:29:44.713Z,1.83
2022-10-22T10:32:28.980Z,1.83
2022-10-22T10:35:12.458Z,1.92
2022-10-22T10:37:47.451Z,1.98
2022-10-22T10:40:34.318Z,1.95
2022-10-22T10:43:11.063Z,1.90
2022-10-22T10:45:48.860Z,2.13
2022-10-22T10:48:41.303Z,2.40
2022-10-22T10:51:19.728Z,1.75
2022-10-22T10:54:08.852Z,2.40
2022-10-22T10:56:42.682Z,2.10
2022-10-22T10:59:19.447Z,1.85
2022-10-22T11:02:09.218Z,1.80
2022-10-22T11:05:05.802Z,2.33
2022-10-22T11:07:41.913Z,1.90
2022-10-22T11:10:20.613Z,1.90
2022-10-22T11:12:52.689Z,2.40
2022-10-22T11:15:28.465Z,3.08
2022-10-22T11:18:03.361Z,2.40
2022-10-22T11:20:42.165Z,2.90
2022-10-22T11:23:20.577Z,2.45
2022-10-22T11:25:51.150Z,2.03
2022-10-22T11:28:25.441Z,2.10
2022-10-22T11:31:00.486Z,1.83
2022-10-22T11:33:36.025Z,2.03
2022-10-22T11:36:06.122Z,2.38
2022-10-22T11:38:36.691Z,2.05
2022-10-22T11:41:08.723Z,1.92
2022-10-22T11:43:57.017Z,2.42
2022-10-22T11:46:35.983Z,2.00
2022-10-22T11:49:17.382Z,2.17
2022-10-22T11:51:46.951Z,2.00
2022-10-22T11:54:42.728Z,1.23
2022-10-22T11:57:20.474Z,2.30
2022-10-22T11:59:58.337Z,1.90
2022-10-22T12:02:49.874Z,1.83
2022-10-22T12:05:45.389Z,1.73
2022-10-22T12:08:27.446Z,1.85
2022-10-22T12:11:07.502Z,1.35
2022-10-22T12:13:58.480Z,1.40
2022-10-22T12:19:16.491Z,1.90
2022-10-22T12:21:48.893Z,1.92
2022-10-22T12:24:20.072Z,1.60
2022-10-22T12:26:52.539Z,1.80
2022-10-22T12:29:23.985Z,1.50
2022-10-22T12:31:51.924Z,1.65
2022-10-22T12:34:23.991Z,1.75
2022-10-22T12:36:54.926Z,1.40
2022-10-22T12:39:27.586Z,2.00
2022-10-22T12:41:56.936Z,2.00
2022-10-22T12:44:24.962Z,1.92
2022-10-22T12:46:56.049Z,3.28
2022-10-22T12:49:34.522Z,1.65
2022-10-22T12:52:08.620Z,1.60
2022-10-22T12:54:40.205Z,2.05
2022-10-22T12:57:15.523Z,2.05
2022-10-22T12:59:48.818Z,2.40
2022-10-22T13:02:22.435Z,3.03
2022-10-22T13:05:21.747Z,2.70
2022-10-22T13:07:52.565Z,3.10
2022-10-22T13:10:26.158Z,3.67
2022-10-22T13:12:58.245Z,3.00
2022-10-22T13:15:40.568Z,1.77
2022-10-22T13:18:18.709Z,1.98
2022-10-22T13:20:55.034Z,2.22
2022-10-22T13:23:25.466Z,1.90
2022-10-22T13:26:02.613Z,2.42
2022-10-22T13:28:33.675Z,1.80
2022-10-22T13:31:04.355Z,1.83
2022-10-22T13:33:37.051Z,1.70
2022-10-22T13:36:06.363Z,2.65
2022-10-22T13:38:34.383Z,2.70
2022-10-22T13:41:03.204Z,2.95
2022-10-22T13:43:32.533Z,2.72
2022-10-22T13:46:01.559Z,2.47
2022-10-22T13:48:31.480Z,3.28
2022-10-22T13:50:59.451Z,3.13
2022-10-22T13:53:30.180Z,3.17
2022-10-22T13:55:58.186Z,3.30
2022-10-22T13:58:26.254Z,2.50
2022-10-22T14:00:57.862Z,2.88
2022-10-22T14:03:29.137Z,2.00
2022-10-22T14:05:57.274Z,3.10
2022-10-22T14:08:26.774Z,2.58
2022-10-22T14:10:54.769Z,2.50
2022-10-22T14:13:22.958Z,2.00
2022-10-22T14:15:52.676Z,2.15
2022-10-22T14:18:26.573Z,2.00
2022-10-22T14:20:56.093Z,1.90
2022-10-22T14:23:27.331Z,2.35
2022-10-22T14:25:55.410Z,1.73
2022-10-22T14:28:23.424Z,2.00
2022-10-22T14:30:52.539Z,3.75
2022-10-22T14:33:28.779Z,3.08
2022-10-22T14:35:58.403Z,3.47
2022-10-22T14:38:26.370Z,2.50
2022-10-22T14:40:54.681Z,3.20
2022-10-22T14:43:25.248Z,3.53
2022-10-22T14:45:53.281Z,3.30
2022-10-22T14:48:21.511Z,6.72
2022-10-22T14:50:51.414Z,4.10
2022-10-22T14:53:19.451Z,3.38
2022-10-22T14:55:49.189Z,3.47
2022-10-22T14:58:17.264Z,3.60
2022-10-22T15:00:45.231Z,3.33
2022-10-22T15:03:13.428Z,3.28
2022-10-22T15:05:44.219Z,2.50
2022-10-22T15:08:15.575Z,2.13
2022-10-22T15:10:43.568Z,1.80
2022-10-22T15:13:11.772Z,1.90
2022-10-22T15:15:41.142Z,2.35
2022-10-22T15:18:09.186Z,2.30
2022-10-22T15:20:37.171Z,2.38
2022-10-22T15:23:05.164Z,2.67
2022-10-22T15:25:34.522Z,2.00
2022-10-22T15:28:09.429Z,1.90
2022-10-22T15:30:38.203Z,2.53
2022-10-22T15:33:07.306Z,1.98
2022-10-22T15:35:35.355Z,2.53
2022-10-22T15:38:06.417Z,1.90
2022-10-22T15:40:35.782Z,2.67
2022-10-22T15:43:03.867Z,1.67
2022-10-22T15:45:31.826Z,2.67
2022-10-22T15:47:59.712Z,2.03
2022-10-22T15:50:27.862Z,2.05
2022-10-22T15:52:55.783Z,1.75
2022-10-22T15:55:23.988Z,1.90
2022-10-22T15:57:58.049Z,2.10
2022-10-22T16:00:28.502Z,1.70
2022-10-22T16:02:56.435Z,2.20
2022-10-22T16:05:24.389Z,1.92
2022-10-22T16:07:55.641Z,2.05
2022-10-22T16:10:24.428Z,2.35
2022-10-22T16:12:54.509Z,2.10
2022-10-22T16:15:23.780Z,1.45
2022-10-22T16:17:52.966Z,1.73
2022-10-22T16:20:20.913Z,1.95
2022-10-22T16:22:50.952Z,1.40
2022-10-22T16:25:18.877Z,1.55
2022-10-22T16:27:50.399Z,1.90
2022-10-22T16:30:18.890Z,2.78
2022-10-22T16:32:48.179Z,2.08
2022-10-22T16:35:16.363Z,1.90
2022-10-22T16:37:44.426Z,2.40
2022-10-22T16:40:13.844Z,2.08
2022-10-22T16:42:42.017Z,2.80
2022-10-22T16:45:10.848Z,3.28
2022-10-22T16:47:38.916Z,3.05
2022-10-22T16:50:09.390Z,2.90
2022-10-22T16:52:37.420Z,4.00
2022-10-22T16:55:05.874Z,2.10
2022-10-22T16:57:33.917Z,2.63
2022-10-22T17:00:01.888Z,2.50
2022-10-22T17:02:29.882Z,2.40
2022-10-22T17:04:57.854Z,2.90
2022-10-22T17:07:27.175Z,2.05
2022-10-22T17:09:55.127Z,1.92
2022-10-22T17:12:23.121Z,2.13
2022-10-22T17:14:51.131Z,2.78
2022-10-22T17:17:19.032Z,2.50
2022-10-22T17:19:46.950Z,2.17
2022-10-22T17:22:17.623Z,2.67
2022-10-22T17:24:47.782Z,2.30
2022-10-22T17:27:15.729Z,2.75
2022-10-22T17:29:43.739Z,2.83
2022-10-22T17:32:11.769Z,3.15
2022-10-22T17:34:40.166Z,2.15
2022-10-22T17:37:08.107Z,2.15
2022-10-22T17:39:36.131Z,1.75
2022-10-22T17:42:06.210Z,2.45
2022-10-22T17:44:34.114Z,2.03
2022-10-22T17:47:02.107Z,2.90
2022-10-22T17:49:30.019Z,2.15
2022-10-22T17:51:57.969Z,2.22
2022-10-22T17:54:26.056Z,2.35
2022-10-22T17:56:53.985Z,2.90
2022-10-22T17:59:23.381Z,2.50
2022-10-22T18:01:51.509Z,2.28
2022-10-22T18:04:20.793Z,2.95
2022-10-22T18:06:49.505Z,2.88
2022-10-22T18:09:19.424Z,3.80
2022-10-22T18:11:47.896Z,4.18
2022-10-22T18:14:17.468Z,2.65
2022-10-22T18:16:47.506Z,4.40
2022-10-22T18:19:17.315Z,3.10
2022-10-22T18:21:45.595Z,2.63
2022-10-22T18:24:15.400Z,2.80
2022-10-22T18:26:43.678Z,3.22
2022-10-22T18:29:14.528Z,3.58
2022-10-22T18:31:42.497Z,3.08
2022-10-22T18:34:12.117Z,3.33
2022-10-22T18:36:41.594Z,2.72
2022-10-22T18:39:09.701Z,3.30
2022-10-22T18:41:37.672Z,4.35
2022-10-22T18:44:06.841Z,3.95
2022-10-22T18:46:38.297Z,4.13
2022-10-22T18:49:07.991Z,5.15
2022-10-22T18:51:37.751Z,4.45
2022-10-22T18:54:21.698Z,4.45
2022-10-22T18:56:50.502Z,5.65
2022-10-22T18:59:19.744Z,5.85
2022-10-22T19:01:47.665Z,4.57
2022-10-22T19:04:15.793Z,3.13
2022-10-22T19:06:46.026Z,4.47
2022-10-22T19:09:14.826Z,3.80
2022-10-22T19:11:43.845Z,3.30
2022-10-22T19:14:11.738Z,3.58
2022-10-22T19:16:39.642Z,2.72
2022-10-22T19:19:08.414Z,1.80
2022-10-22T19:21:37.510Z,2.05
2022-10-22T19:24:07.688Z,2.20
2022-10-22T19:26:35.691Z,3.17
2022-10-22T19:29:05.424Z,3.50
2022-10-22T19:31:33.617Z,2.20
2022-10-22T19:34:03.127Z,2.13
2022-10-22T19:36:32.681Z,1.85
2022-10-22T19:39:01.734Z,1.90
2022-10-22T19:41:32.638Z,2.20
2022-10-22T19:44:01.518Z,2.28
2022-10-22T19:46:32.557Z,2.25
2022-10-22T19:49:00.888Z,2.10
2022-10-22T19:51:30.818Z,1.70
2022-10-22T19:54:00.390Z,2.05
2022-10-22T19:56:29.612Z,2.20
2022-10-22T19:58:59.494Z,1.77
2022-10-22T20:01:28.117Z,1.48
2022-10-22T20:03:56.180Z,1.27
2022-10-22T20:06:24.926Z,2.55
2022-10-22T20:08:55.974Z,2.15
2022-10-22T20:11:25.990Z,1.67
2022-10-22T20:13:54.790Z,1.73
2022-10-22T20:16:28.294Z,1.58
2022-10-22T20:18:59.756Z,1.52
2022-10-22T20:21:28.393Z,1.83
2022-10-22T20:23:57.405Z,1.80
2022-10-22T20:26:28.112Z,1.90
2022-10-22T20:28:57.009Z,1.40
2022-10-22T20:31:28.566Z,1.80
2022-10-22T20:33:58.566Z,1.88
2022-10-22T20:36:28.764Z,2.20
2022-10-22T20:39:01.199Z,1.42
2022-10-22T20:41:29.890Z,2.55
2022-10-22T20:43:57.811Z,1.95
2022-10-22T20:46:30.101Z,2.55
2022-10-22T20:49:01.238Z,2.10
2022-10-22T20:51:29.308Z,2.17
2022-10-22T20:53:57.264Z,2.65
2022-10-22T20:56:25.338Z,2.30
2022-10-22T20:59:03.975Z,2.28
2022-10-22T21:01:36.386Z,2.70
2022-10-22T21:04:04.738Z,1.73
2022-10-22T21:06:32.972Z,2.70
2022-10-22T21:09:01.002Z,1.98
2022-10-22T21:11:28.998Z,2.17
2022-10-22T21:13:56.862Z,1.98
2022-10-22T21:16:24.737Z,1.70
2022-10-22T21:18:54.013Z,1.75
2022-10-22T21:21:21.884Z,1.52
2022-10-22T21:23:51.089Z,1.85
2022-10-22T21:26:19.373Z,2.42
2022-10-22T21:28:47.787Z,1.85
2022-10-22T21:31:21.834Z,2.30
2022-10-22T21:33:50.879Z,2.22
2022-10-22T21:36:23.035Z,2.05
2022-10-22T21:38:52.056Z,1.85
2022-10-22T21:41:22.104Z,3.78
2022-10-22T21:43:50.622Z,2.03
2022-10-22T21:46:20.815Z,2.10
2022-10-22T21:48:53.039Z,2.22
2022-10-22T21:51:23.373Z,1.98
2022-10-22T21:56:22.546Z,2.10
2022-10-22T21:58:50.439Z,2.05
2022-10-22T22:01:18.482Z,1.90
2022-10-22T22:03:48.996Z,2.00
2022-10-22T22:06:21.279Z,2.03
2022-10-22T22:08:52.777Z,2.13
2022-10-22T22:11:23.447Z,2.05
2022-10-22T22:13:52.419Z,2.35
2022-10-22T22:16:28.196Z,1.75
2022-10-22T22:18:57.244Z,2.47
2022-10-22T22:21:25.221Z,2.78
2022-10-22T22:23:54.496Z,2.72
2022-10-22T22:26:29.635Z,2.63
2022-10-22T22:28:58.348Z,3.05
2022-10-22T22:31:28.478Z,2.60
2022-10-22T22:34:00.291Z,3.10
2022-10-22T22:36:28.333Z,2.55
2022-10-22T22:38:57.825Z,2.50
2022-10-22T22:41:25.720Z,2.53
2022-10-22T22:43:56.565Z,2.75
2022-10-22T22:46:24.504Z,2.75
2022-10-22T22:48:52.746Z,2.60
2022-10-22T22:51:20.730Z,2.38
2022-10-22T22:53:48.867Z,2.20
2022-10-22T22:56:19.856Z,2.67
2022-10-22T22:58:48.148Z,2.45
2022-10-22T23:01:18.087Z,2.53
2022-10-22T23:03:48.078Z,3.03
2022-10-22T23:06:16.967Z,3.20
2022-10-22T23:08:45.100Z,2.63
2022-10-22T23:11:14.833Z,2.28
2022-10-22T23:13:44.653Z,3.20
2022-10-22T23:16:15.740Z,2.85
2022-10-22T23:18:43.822Z,3.28
2022-10-22T23:21:14.493Z,2.22
2022-10-22T23:23:44.738Z,2.22
2022-10-22T23:26:14.034Z,3.03
2022-10-22T23:28:42.229Z,2.88
2022-10-22T23:31:14.613Z,2.80
2022-10-22T23:33:42.653Z,2.60
2022-10-22T23:36:11.211Z,3.45
2022-10-22T23:38:40.873Z,3.10
2022-10-22T23:41:09.333Z,2.33
2022-10-22T23:43:38.523Z,2.63
2022-10-22T23:46:07.636Z,2.60
2022-10-22T23:48:37.530Z,2.60
2022-10-22T23:51:06.441Z,2.67
2022-10-22T23:53:34.609Z,2.83
2022-10-22T23:56:05.276Z,2.83
2022-10-22T23:58:33.795Z,2.42
